Diamond, Illinois
Current Conditions -  °F | °C
As of 5:15 PM on Thursday 27 Nov 2014 (Local Time) from KC09 Reporting Station
Overcast Overcast  
Wind Chill: 13°   Ceiling: 3500
Heat Index: 23°   Visibility: 10mi
Dew Point: 16°   Wind: 10mph
Humidity: 75%   Direction: 300°WNW
Pressure: 30.41"   Gusts: NA
Location:  41.2967°N, 88.2846°W
Report Text: KC09 272315Z AUTO 30009KT 10SM OVC035 M05/M09 A3041 RMK AO2 T10481087
Loading
Personal Weather Stations






























Interactive Weather Map New forecast layout! Learn more

10-Day Weather Forecast

Advertisements
Track Severe Weather on mobile